createdAt,value
2023-04-02T00:00:07.011Z,100198.22
2023-04-02T00:05:16.396Z,100198.22
2023-04-02T00:10:33.209Z,100198.22
2023-04-02T00:20:38.491Z,100198.22
2023-04-02T00:25:43.203Z,100198.22
2023-04-02T00:30:58.973Z,100198.22
2023-04-02T00:36:00.459Z,100198.22
2023-04-02T00:41:03.744Z,100198.22
2023-04-02T00:51:14.155Z,57965.28
2023-04-02T00:56:30.961Z,100198.22
2023-04-02T01:01:36.621Z,100198.22
2023-04-02T01:06:38.675Z,100198.22
2023-04-02T01:11:58.627Z,76594.47
2023-04-02T01:22:13.886Z,76594.47
2023-04-02T01:27:21.475Z,76594.47
2023-04-02T01:32:24.134Z,100198.22
2023-04-02T01:42:44.408Z,57965.28
2023-04-02T01:47:46.238Z,57965.28
2023-04-02T01:52:53.679Z,76594.47
2023-04-02T01:57:55.570Z,57965.28
2023-04-02T02:02:57.224Z,57965.28
2023-04-02T02:13:03.908Z,57965.28
2023-04-02T02:18:05.822Z,112849.09
2023-04-02T02:23:07.642Z,57965.28
2023-04-02T02:28:23.734Z,57965.28
2023-04-02T02:38:29.958Z,57965.28
2023-04-02T02:48:39.039Z,57965.28
2023-04-02T02:53:50.510Z,57965.28
2023-04-02T02:58:53.245Z,57965.28
2023-04-02T03:03:59.731Z,57965.28
2023-04-02T03:09:17.327Z,57965.28
2023-04-02T03:14:24.034Z,57965.28
2023-04-02T03:24:59.533Z,57965.28
2023-04-02T03:30:05.128Z,57965.28
2023-04-02T03:35:27.701Z,57965.28
2023-04-02T03:40:34.958Z,57965.28
2023-04-02T03:45:39.728Z,57965.28
2023-04-02T03:50:45.942Z,57965.28
2023-04-02T03:55:47.922Z,57965.28
2023-04-02T04:00:56.783Z,57965.28
2023-04-02T04:06:00.707Z,57965.28
2023-04-02T04:11:07.413Z,57965.28
2023-04-02T04:16:17.614Z,57965.28
2023-04-02T04:26:53.432Z,57965.28
2023-04-02T04:31:56.180Z,76594.47
2023-04-02T04:47:18.615Z,57965.28
2023-04-02T04:52:24.243Z,57965.28
2023-04-02T04:57:36.589Z,57965.28
2023-04-02T05:02:52.705Z,100198.22
2023-04-02T05:13:04.649Z,57965.28
2023-04-02T05:18:14.871Z,57965.28
2023-04-02T05:23:29.512Z,57965.28
2023-04-02T05:28:42.473Z,57965.28
2023-04-02T05:33:47.925Z,57965.28
2023-04-02T05:38:51.291Z,57965.28
2023-04-02T05:44:17.178Z,57965.28
2023-04-02T05:49:25.374Z,57965.28
2023-04-02T05:54:30.023Z,57965.28
2023-04-02T05:59:41.851Z,57965.28
2023-04-02T06:14:52.558Z,57965.28
2023-04-02T06:19:57.192Z,57965.28
2023-04-02T06:25:02.545Z,57965.28
2023-04-02T06:30:15.600Z,57965.28
2023-04-02T06:35:17.927Z,57965.28
2023-04-02T06:40:30.389Z,57965.28
2023-04-02T06:45:34.944Z,57965.28
2023-04-02T06:51:07.215Z,57965.28
2023-04-02T06:56:27.691Z,57965.28
2023-04-02T07:01:30.725Z,57965.28
2023-04-02T07:06:33.024Z,57965.28
2023-04-02T07:11:36.274Z,57965.28
2023-04-02T07:16:40.967Z,57965.28
2023-04-02T07:21:42.461Z,57965.28
2023-04-02T07:31:45.586Z,57965.28
2023-04-02T07:36:47.049Z,57965.28
2023-04-02T07:41:55.761Z,57965.28
2023-04-02T07:46:57.249Z,57965.28
2023-04-02T07:51:58.867Z,57965.28
2023-04-02T07:57:00.269Z,57965.28
2023-04-02T08:02:02.706Z,57965.28
2023-04-02T08:07:04.097Z,57965.28
2023-04-02T08:12:05.711Z,57965.28
2023-04-02T08:17:07.153Z,57965.28
2023-04-02T08:22:08.463Z,57965.28
2023-04-02T08:27:13.628Z,57965.28
2023-04-02T08:32:16.214Z,57965.28
2023-04-02T08:37:17.554Z,57965.28
2023-04-02T08:42:23.208Z,57965.28
2023-04-02T08:47:27.029Z,57965.28
2023-04-02T08:52:30.423Z,57965.28
2023-04-02T08:57:31.880Z,57965.28
2023-04-02T09:02:46.779Z,57965.28
2023-04-02T09:07:50.629Z,76594.84
2023-04-02T09:12:52.799Z,76594.47
2023-04-02T09:17:59.963Z,76594.47
2023-04-02T09:28:04.319Z,100198.22
2023-04-02T09:33:09.457Z,76594.47
2023-04-02T09:38:31.616Z,76594.47
2023-04-02T09:43:36.855Z,100198.22
2023-04-02T09:53:45.993Z,57965.28
2023-04-02T09:59:02.901Z,100198.22
2023-04-02T10:04:05.297Z,100198.22
2023-04-02T10:09:21.468Z,100198.22
2023-04-02T10:14:30.432Z,76594.47
2023-04-02T10:19:37.575Z,100198.22
2023-04-02T10:24:39.637Z,100198.22
2023-04-02T10:29:53.708Z,100198.22
2023-04-02T10:34:58.149Z,101548.09
2023-04-02T10:40:19.735Z,101564.84
2023-04-02T10:45:32.398Z,101578.09
2023-04-02T10:50:40.277Z,101578.09
2023-04-02T10:55:48.129Z,101581.59
2023-04-02T11:00:49.980Z,101594.81
2023-04-02T11:05:52.156Z,101594.81
2023-04-02T11:10:59.027Z,101594.81
2023-04-02T11:16:00.525Z,101613.31
2023-04-02T11:21:03.642Z,101605.28
2023-04-02T11:26:23.652Z,101627.41
2023-04-02T11:31:25.055Z,101627.41
2023-04-02T11:36:45.078Z,101642.38
2023-04-02T11:42:03.164Z,101636.28
2023-04-02T11:47:16.542Z,101644.13
2023-04-02T11:52:20.902Z,101651.28
2023-04-02T11:57:25.004Z,101658.22
2023-04-02T12:02:35.252Z,101661.78
2023-04-02T12:07:46.568Z,101675.94
2023-04-02T12:12:48.485Z,101683.03
2023-04-02T12:17:50.209Z,101694.47
2023-04-02T12:22:55.791Z,101704.16
2023-04-02T12:28:09.635Z,101712.13
2023-04-02T12:33:19.830Z,101713.00
2023-04-02T12:38:25.867Z,101711.25
2023-04-02T12:43:31.346Z,101713.00
2023-04-02T12:48:33.524Z,101728.81
2023-04-02T12:53:40.024Z,101731.50
2023-04-02T12:58:42.681Z,101739.50
2023-04-02T13:03:44.827Z,101743.03
2023-04-02T13:08:46.217Z,101747.38
2023-04-02T13:13:48.587Z,101763.34
2023-04-02T13:18:50.589Z,101756.22
2023-04-02T13:23:51.957Z,101759.81
2023-04-02T13:28:56.499Z,101765.97
2023-04-02T13:33:58.530Z,101771.28
2023-04-02T13:39:00.174Z,101774.84
2023-04-02T13:44:02.801Z,101785.34
2023-04-02T13:49:04.247Z,101792.47
2023-04-02T13:54:08.833Z,101803.06
2023-04-02T13:59:10.325Z,101804.84
2023-04-02T14:04:13.839Z,101816.34
2023-04-02T14:09:18.132Z,101813.66
2023-04-02T14:14:28.655Z,101823.41
2023-04-02T14:19:50.891Z,101833.13
2023-04-02T14:24:52.247Z,101823.41
2023-04-02T14:30:13.976Z,101842.84
2023-04-02T14:35:24.511Z,101849.91
2023-04-02T14:40:46.323Z,101847.28
2023-04-02T14:45:51.481Z,101863.16
2023-04-02T14:51:01.436Z,101875.50
2023-04-02T14:56:05.730Z,101872.00
2023-04-02T15:01:13.675Z,101881.72
2023-04-02T15:06:18.314Z,101875.56
2023-04-02T15:11:21.408Z,101871.09
2023-04-02T15:16:25.467Z,101874.53
2023-04-02T15:21:29.932Z,101871.88
2023-04-02T15:26:37.794Z,101883.44
2023-04-02T15:31:43.803Z,101883.38
2023-04-02T15:36:54.122Z,101878.19
2023-04-02T15:41:58.397Z,101889.66
2023-04-02T15:47:05.720Z,101894.91
2023-04-02T15:52:17.031Z,101899.16
2023-04-02T15:57:27.545Z,101900.09
2023-04-02T16:02:41.055Z,101902.72
2023-04-02T16:07:42.484Z,101908.88
2023-04-02T16:12:44.180Z,101914.16
2023-04-02T16:17:47.580Z,101920.41
2023-04-02T16:23:00.596Z,101924.03
2023-04-02T16:28:02.517Z,101928.41
2023-04-02T16:33:30.354Z,101941.72
2023-04-02T16:38:40.852Z,101948.75
2023-04-02T16:43:48.884Z,101957.63
2023-04-02T16:49:08.845Z,101958.53
2023-04-02T16:54:16.981Z,101963.88
2023-04-02T16:59:22.857Z,101986.88
2023-04-02T17:04:24.202Z,101984.22
2023-04-02T17:09:49.314Z,101998.38
2023-04-02T17:14:54.572Z,101993.91
2023-04-02T17:19:57.835Z,102001.84
2023-04-02T17:25:04.184Z,102013.31
2023-04-02T17:30:17.075Z,102021.31
2023-04-02T17:35:24.985Z,102029.31
2023-04-02T17:40:52.961Z,102035.53
2023-04-02T17:46:01.734Z,102038.16
2023-04-02T17:51:21.823Z,102048.78
2023-04-02T17:56:29.024Z,102057.63
2023-04-02T18:01:39.640Z,102066.44
2023-04-02T18:06:45.996Z,102074.44
2023-04-02T18:12:02.071Z,102082.38
2023-04-02T18:17:42.106Z,102096.53
2023-04-02T18:22:49.362Z,102101.78
2023-04-02T18:27:56.903Z,102112.34
2023-04-02T18:33:18.366Z,102117.66
2023-04-02T18:38:33.152Z,102126.44
2023-04-02T18:43:53.095Z,102130.78
2023-04-02T18:48:59.766Z,102135.16
2023-04-02T18:54:17.645Z,102153.69
2023-04-02T18:59:28.251Z,102161.75
2023-04-02T19:04:31.538Z,102170.47
2023-04-02T19:09:38.716Z,102174.84
2023-04-02T19:14:40.292Z,102181.09
2023-04-02T19:19:46.587Z,102181.06
2023-04-02T19:24:57.314Z,102191.50
2023-04-02T19:29:58.650Z,102193.22
2023-04-02T19:35:07.256Z,102200.25
2023-04-02T19:40:27.383Z,102209.13
2023-04-02T19:45:34.710Z,102210.06
2023-04-02T19:50:36.473Z,102215.31
2023-04-02T19:55:38.237Z,102221.34
2023-04-02T20:00:39.906Z,102228.41
2023-04-02T20:05:41.274Z,102238.81
2023-04-02T20:10:42.678Z,102241.56
2023-04-02T20:15:44.016Z,102249.41
2023-04-02T20:20:46.469Z,102249.38
2023-04-02T20:25:52.606Z,102253.63
2023-04-02T20:30:54.702Z,102251.94
2023-04-02T20:36:00.757Z,102266.84
2023-04-02T20:41:03.666Z,102259.59
2023-04-02T20:46:05.653Z,102256.97
2023-04-02T20:51:08.089Z,102261.28
2023-04-02T20:56:13.618Z,102266.66
2023-04-02T21:01:22.147Z,102265.75
2023-04-02T21:06:24.568Z,102279.53
2023-04-02T21:11:26.136Z,102289.34
2023-04-02T21:16:29.251Z,102291.91
2023-04-02T21:21:30.768Z,102291.00
2023-04-02T21:26:34.829Z,102293.38
2023-04-02T21:31:37.602Z,102301.28
2023-04-02T21:36:46.120Z,102303.84
2023-04-02T21:41:50.064Z,102306.63
2023-04-02T21:46:53.627Z,102304.72
2023-04-02T21:51:55.704Z,102310.00
2023-04-02T21:56:57.114Z,102324.94
2023-04-02T22:01:58.562Z,102324.94
2023-04-02T22:06:59.952Z,102324.94
2023-04-02T22:12:02.237Z,102326.56
2023-04-02T22:17:03.905Z,102326.56
2023-04-02T22:22:05.519Z,102326.56
2023-04-02T22:27:06.912Z,102326.56
2023-04-02T22:32:08.222Z,102331.38
2023-04-02T22:37:09.583Z,102331.38
2023-04-02T22:42:10.927Z,102331.38
2023-04-02T22:47:12.356Z,102331.38
2023-04-02T22:57:15.030Z,102331.38
2023-04-02T23:02:16.434Z,57965.28
2023-04-02T23:07:19.582Z,102331.38
2023-04-02T23:12:21.240Z,102331.38
2023-04-02T23:17:22.757Z,78667.16
2023-04-02T23:22:24.093Z,78667.16
2023-04-02T23:27:25.649Z,102331.38
2023-04-02T23:42:29.589Z,57965.28
2023-04-02T23:47:31.072Z,57965.28
2023-04-02T23:52:32.432Z,57965.28
2023-04-02T23:57:33.879Z,57965.28
